Time;durP1;ratioP1;P1;durP2;ratioP2;P2;SDS_P1;SDS_P2;PMS_P1;PMS_P2;Temp;Humidity;BMP_temperature;BMP_pressure;BME280_temperature;BME280_humidity;BME280_pressure;Samples;Min_cycle;Max_cycle;Signal;HPM_P1;HPM_P2
2022/08/27 00:01:23;;;;;;;4.57;1.20;;;17.20;99.90;;;;;;4919571;29;20040;-78
2022/08/27 00:03:50;;;;;;;5.82;1.48;;;17.20;99.90;;;;;;4919842;29;20399;-78
2022/08/27 00:06:17;;;;;;;4.40;1.20;;;17.20;99.90;;;;;;4919584;29;20046;-78
2022/08/27 00:08:45;;;;;;;4.82;1.50;;;17.20;99.90;;;;;;4919574;29;20047;-79
2022/08/27 00:11:11;;;;;;;3.33;1.25;;;17.20;99.90;;;;;;4936535;29;20051;-78
2022/08/27 00:13:38;;;;;;;3.75;1.40;;;17.20;99.90;;;;;;4919575;29;20122;-78
2022/08/27 00:16:05;;;;;;;3.17;1.20;;;17.20;99.90;;;;;;4936576;29;20047;-78
2022/08/27 00:18:33;;;;;;;4.15;1.40;;;17.20;99.90;;;;;;4936417;29;20058;-78
2022/08/27 00:20:59;;;;;;;4.88;1.80;;;17.10;99.90;;;;;;4936548;29;20043;-78
2022/08/27 00:23:25;;;;;;;4.82;1.20;;;17.10;99.90;;;;;;4936488;29;20040;-79
2022/08/27 00:25:50;;;;;;;5.22;1.27;;;17.10;99.90;;;;;;4919375;29;20060;-78
2022/08/27 00:28:16;;;;;;;4.03;1.17;;;17.00;99.90;;;;;;4936891;29;20051;-78
2022/08/27 00:30:42;;;;;;;4.00;1.15;;;17.10;99.90;;;;;;4936358;29;20047;-79
2022/08/27 00:33:08;;;;;;;4.45;1.20;;;17.00;99.90;;;;;;4919212;29;20151;-79
2022/08/27 00:35:33;;;;;;;4.03;1.00;;;17.00;99.90;;;;;;4936364;29;20070;-78
2022/08/27 00:38:00;;;;;;;4.50;1.05;;;17.00;99.90;;;;;;4919284;29;20048;-78
2022/08/27 00:40:26;;;;;;;4.68;1.65;;;17.00;99.90;;;;;;4936258;29;20058;-78
2022/08/27 00:42:52;;;;;;;5.05;1.00;;;17.00;99.90;;;;;;4919340;29;20064;-78
2022/08/27 00:45:21;;;;;;;5.93;1.17;;;17.00;99.90;;;;;;4919149;29;20055;-78
2022/08/27 00:47:53;;;;;;;4.88;1.65;;;16.90;99.90;;;;;;4936204;29;20047;-78
2022/08/27 00:50:33;;;;;;;3.10;1.15;;;16.90;99.90;;;;;;4919315;29;20043;-78
2022/08/27 00:53:02;;;;;;;6.20;1.15;;;16.90;99.90;;;;;;4936224;29;20075;-78
2022/08/27 00:55:34;;;;;;;3.97;1.08;;;16.90;99.90;;;;;;4919257;29;20051;-78
2022/08/27 00:58:07;;;;;;;2.70;0.83;;;16.90;99.90;;;;;;4936131;29;20498;-78
2022/08/27 01:00:34;;;;;;;5.35;1.05;;;16.90;99.90;;;;;;4919119;29;20062;-77
2022/08/27 01:02:59;;;;;;;3.45;1.02;;;16.90;99.90;;;;;;4936107;29;20040;-78
2022/08/27 01:05:26;;;;;;;5.60;1.35;;;16.90;99.90;;;;;;4920626;29;20036;-78
2022/08/27 01:07:56;;;;;;;3.28;1.30;;;16.90;99.90;;;;;;4939582;29;20388;-78
2022/08/27 01:10:25;;;;;;;5.88;1.20;;;16.90;99.90;;;;;;4922554;29;20048;-78
2022/08/27 01:12:53;;;;;;;4.20;0.73;;;16.80;99.90;;;;;;4939791;29;20047;-78
2022/08/27 01:15:20;;;;;;;6.20;1.15;;;16.90;99.90;;;;;;4939738;29;20180;-78
2022/08/27 01:17:47;;;;;;;3.13;0.85;;;16.80;99.90;;;;;;4939675;29;20058;-78
2022/08/27 01:20:18;;;;;;;3.38;1.10;;;16.80;99.90;;;;;;4939543;29;20081;-78
2022/08/27 01:23:06;;;;;;;6.03;1.30;;;16.80;99.90;;;;;;4922442;29;20086;-78
2022/08/27 01:25:32;;;;;;;7.20;1.20;;;16.80;99.90;;;;;;4922438;29;20048;-79
2022/08/27 01:27:59;;;;;;;4.70;1.10;;;16.90;99.90;;;;;;4939539;29;20055;-78
2022/08/27 01:30:26;;;;;;;3.25;1.05;;;16.90;99.90;;;;;;4939345;29;20051;-78
2022/08/27 01:32:52;;;;;;;4.80;1.30;;;16.90;99.90;;;;;;4922427;29;20051;-78
2022/08/27 01:35:19;;;;;;;4.20;1.20;;;16.90;99.90;;;;;;4922186;29;20040;-78
2022/08/27 01:37:48;;;;;;;6.90;1.20;;;16.90;99.90;;;;;;4922384;29;20047;-78
2022/08/27 01:40:15;;;;;;;4.32;1.00;;;16.90;99.90;;;;;;4939272;29;20047;-79
2022/08/27 01:42:44;;;;;;;5.43;1.40;;;16.90;99.90;;;;;;4922126;29;20475;-79
2022/08/27 01:45:15;;;;;;;4.85;1.20;;;16.90;99.90;;;;;;4939112;29;20567;-78
2022/08/27 01:47:41;;;;;;;4.53;1.25;;;16.90;99.90;;;;;;4921964;29;20040;-78
2022/08/27 01:50:23;;;;;;;5.75;1.05;;;16.90;99.90;;;;;;4922175;29;20052;-78
2022/08/27 01:52:50;;;;;;;3.13;1.20;;;16.90;99.90;;;;;;4939065;29;20415;-78
2022/08/27 01:55:19;;;;;;;4.30;1.20;;;17.00;99.90;;;;;;4921945;29;20039;-78
2022/08/27 01:57:44;;;;;;;4.93;1.38;;;17.00;99.90;;;;;;4939161;29;20122;-78
2022/08/27 02:00:15;;;;;;;6.53;1.45;;;17.00;99.90;;;;;;4938915;29;20560;-78
2022/08/27 02:02:41;;;;;;;4.78;1.40;;;16.90;99.90;;;;;;4938950;29;20043;-78
2022/08/27 02:05:07;;;;;;;5.35;1.17;;;17.00;99.90;;;;;;4938862;29;20040;-78
2022/08/27 02:07:33;;;;;;;4.38;1.20;;;17.00;99.90;;;;;;4938780;29;20526;-78
2022/08/27 02:09:58;;;;;;;5.38;1.40;;;17.00;99.90;;;;;;4938593;29;20040;-78
2022/08/27 02:12:24;;;;;;;8.38;1.65;;;17.10;99.90;;;;;;4921906;29;20044;-77
2022/08/27 02:14:51;;;;;;;6.68;1.33;;;17.10;99.90;;;;;;4921509;29;20106;-78
2022/08/27 02:17:16;;;;;;;5.85;1.10;;;17.10;99.90;;;;;;4937760;29;20048;-78
2022/08/27 02:19:42;;;;;;;5.13;1.25;;;17.10;99.90;;;;;;4921416;29;20472;-78
2022/08/27 02:22:08;;;;;;;4.88;1.40;;;17.10;99.90;;;;;;4938536;29;20056;-78
2022/08/27 02:24:34;;;;;;;5.03;1.25;;;17.10;99.90;;;;;;4921646;29;20551;-78
2022/08/27 02:27:00;;;;;;;6.80;1.10;;;17.20;99.90;;;;;;4921095;29;20059;-78
2022/08/27 02:29:25;;;;;;;6.10;1.05;;;17.20;99.90;;;;;;4938425;29;20396;-78
2022/08/27 02:31:51;;;;;;;4.70;1.15;;;17.20;99.90;;;;;;4921141;29;20488;-78
2022/08/27 02:34:17;;;;;;;3.40;1.13;;;17.10;99.90;;;;;;4921468;29;20066;-78
2022/08/27 02:36:43;;;;;;;5.78;1.35;;;17.10;99.90;;;;;;4921173;29;20053;-78
2022/08/27 02:39:09;;;;;;;6.53;1.50;;;17.10;99.90;;;;;;4921176;29;20048;-78
2022/08/27 02:41:35;;;;;;;6.20;1.23;;;17.20;99.90;;;;;;4921377;29;20179;-79
2022/08/27 02:44:02;;;;;;;6.15;2.10;;;17.20;99.90;;;;;;4937906;29;20531;-78
2022/08/27 02:46:29;;;;;;;4.00;1.52;;;17.20;99.90;;;;;;4937975;29;20518;-79
2022/08/27 02:48:55;;;;;;;6.05;1.77;;;17.20;99.90;;;;;;4937859;29;20492;-79
2022/08/27 02:51:20;;;;;;;5.63;1.13;;;17.20;99.90;;;;;;4937967;29;20047;-79
2022/08/27 02:53:46;;;;;;;7.00;1.25;;;17.20;99.90;;;;;;4920976;29;20051;-78
2022/08/27 02:56:11;;;;;;;4.72;1.30;;;17.20;99.90;;;;;;4920548;29;20040;-79
2022/08/27 02:58:37;;;;;;;5.10;1.27;;;17.10;99.90;;;;;;4937905;29;20183;-78
2022/08/27 03:01:04;;;;;;;6.78;1.52;;;17.10;99.90;;;;;;4937839;29;20047;-78
2022/08/27 03:03:30;;;;;;;5.53;1.70;;;17.00;99.90;;;;;;4920623;29;20377;-78
2022/08/27 03:05:57;;;;;;;5.35;1.20;;;17.10;99.90;;;;;;4920483;29;20175;-78
2022/08/27 03:08:27;;;;;;;5.45;1.30;;;17.00;99.90;;;;;;4937646;29;20487;-78
2022/08/27 03:10:55;;;;;;;5.63;1.70;;;17.00;99.90;;;;;;4937611;29;20061;-78
2022/08/27 03:13:22;;;;;;;7.25;1.30;;;16.90;99.90;;;;;;4920667;29;20186;-78
2022/08/27 03:15:47;;;;;;;6.53;1.58;;;16.90;99.90;;;;;;4937572;29;20044;-79
2022/08/27 03:18:20;;;;;;;4.80;1.30;;;16.80;99.90;;;;;;4920349;29;20498;-79
2022/08/27 03:20:54;;;;;;;6.38;1.58;;;16.80;99.90;;;;;;4937443;29;20511;-79
2022/08/27 03:23:23;;;;;;;4.10;1.40;;;16.80;99.90;;;;;;4920388;29;20054;-78
2022/08/27 03:25:57;;;;;;;4.03;1.17;;;16.80;99.90;;;;;;4937113;29;20051;-80
2022/08/27 03:28:27;;;;;;;5.47;1.75;;;16.80;99.90;;;;;;4920322;29;20111;-78
2022/08/27 03:31:00;;;;;;;3.28;1.13;;;16.80;99.90;;;;;;4920151;29;20055;-79
2022/08/27 03:33:36;;;;;;;;;;;16.80;99.90;;;;;;4920891;29;20047;-79
2022/08/27 03:36:03;;;;;;;5.68;1.40;;;16.80;99.90;;;;;;4920414;29;19987;-79
2022/08/27 03:38:29;;;;;;;3.55;1.60;;;16.80;99.90;;;;;;4936938;29;20369;-79
2022/08/27 03:40:55;;;;;;;4.63;1.40;;;16.90;99.90;;;;;;4920074;29;20602;-78
2022/08/27 03:43:22;;;;;;;4.72;1.30;;;16.90;99.90;;;;;;4937035;29;20118;-78
2022/08/27 03:45:49;;;;;;;7.07;1.98;;;17.00;99.90;;;;;;4919950;29;20055;-78
2022/08/27 03:48:15;;;;;;;4.38;1.80;;;17.10;99.90;;;;;;4936980;29;20043;-78
2022/08/27 03:50:43;;;;;;;6.85;1.75;;;17.00;99.90;;;;;;4936891;29;20048;-79
2022/08/27 03:53:10;;;;;;;7.05;2.30;;;17.10;99.90;;;;;;4919735;29;20395;-78
2022/08/27 03:55:36;;;;;;;6.40;1.75;;;17.10;99.90;;;;;;4919699;29;20131;-78
2022/08/27 03:58:02;;;;;;;4.15;1.80;;;17.10;99.90;;;;;;4936793;29;20484;-78
2022/08/27 04:00:27;;;;;;;7.20;2.20;;;17.10;99.90;;;;;;4919808;29;20060;-78
2022/08/27 04:02:54;;;;;;;5.93;1.90;;;17.20;99.90;;;;;;4936766;29;20054;-79
2022/08/27 04:05:21;;;;;;;6.35;1.83;;;17.20;99.90;;;;;;4936771;29;20043;-78
2022/08/27 04:07:48;;;;;;;8.27;2.42;;;17.20;99.90;;;;;;4936489;29;20507;-78
2022/08/27 04:10:15;;;;;;;6.53;2.03;;;17.20;99.90;;;;;;4919487;29;20051;-78
2022/08/27 04:12:43;;;;;;;7.90;1.90;;;17.20;99.90;;;;;;4919562;29;20051;-78
2022/08/27 04:15:11;;;;;;;4.25;1.83;;;17.20;99.90;;;;;;4919571;29;20062;-78
2022/08/27 04:17:37;;;;;;;3.35;1.80;;;17.10;99.90;;;;;;4919343;29;20083;-78
2022/08/27 04:20:05;;;;;;;6.63;1.83;;;17.10;99.90;;;;;;4936567;29;20199;-78
2022/08/27 04:22:32;;;;;;;4.43;1.70;;;17.10;99.90;;;;;;4936540;29;20055;-79
2022/08/27 04:24:58;;;;;;;4.88;1.48;;;17.20;99.90;;;;;;4936453;29;20130;-78
2022/08/27 04:27:25;;;;;;;6.55;1.70;;;17.20;99.90;;;;;;4936296;29;20091;-78
2022/08/27 04:29:55;;;;;;;4.15;1.55;;;17.20;99.90;;;;;;4936327;29;20086;-78
2022/08/27 04:32:20;;;;;;;4.97;1.80;;;17.20;99.90;;;;;;4936447;29;20086;-78
2022/08/27 04:34:46;;;;;;;5.63;1.50;;;17.20;99.90;;;;;;4919487;29;20044;-78
2022/08/27 04:37:12;;;;;;;6.13;1.38;;;17.20;99.90;;;;;;4936399;29;20048;-78
2022/08/27 04:39:38;;;;;;;5.65;1.30;;;17.20;99.90;;;;;;4936274;29;20036;-79
2022/08/27 04:42:04;;;;;;;5.35;1.50;;;17.20;99.90;;;;;;4923127;29;20051;-79
2022/08/27 04:44:31;;;;;;;6.32;1.67;;;17.30;99.90;;;;;;4939801;29;20062;-78
2022/08/27 04:47:00;;;;;;;5.35;1.50;;;17.30;99.90;;;;;;4939586;29;20055;-78
2022/08/27 04:49:26;;;;;;;5.10;1.08;;;17.30;99.90;;;;;;4921850;29;20103;-79
2022/08/27 04:51:52;;;;;;;5.97;1.15;;;17.40;99.90;;;;;;4922718;29;20058;-79
2022/08/27 04:54:18;;;;;;;3.58;1.33;;;17.30;99.90;;;;;;4923035;29;20055;-79
2022/08/27 04:56:44;;;;;;;6.53;1.40;;;17.40;99.90;;;;;;4939954;29;20047;-78
2022/08/27 04:59:11;;;;;;;7.30;1.40;;;17.40;99.90;;;;;;4939877;29;20448;-79
2022/08/27 05:01:37;;;;;;;8.20;1.52;;;17.40;99.90;;;;;;4922842;29;20043;-79
2022/08/27 05:04:03;;;;;;;2.97;1.45;;;17.40;99.90;;;;;;4939935;29;20090;-79
2022/08/27 05:06:29;;;;;;;6.32;1.60;;;17.40;99.90;;;;;;4939865;29;20043;-79
2022/08/27 05:08:57;;;;;;;2.92;1.05;;;17.40;99.90;;;;;;4939787;29;20046;-79
2022/08/27 05:11:27;;;;;;;5.65;1.33;;;17.40;99.90;;;;;;4939639;29;20047;-79
2022/08/27 05:13:52;;;;;;;5.00;1.10;;;17.40;99.90;;;;;;4939767;29;20071;-79
2022/08/27 05:16:20;;;;;;;8.00;1.58;;;17.40;99.90;;;;;;4939439;29;20399;-79
2022/08/27 05:18:48;;;;;;;7.05;1.40;;;17.40;99.90;;;;;;4939553;29;20047;-79
2022/08/27 05:21:21;;;;;;;7.40;1.25;;;17.40;99.90;;;;;;4939454;29;20126;-78
2022/08/27 05:23:47;;;;;;;4.82;1.30;;;17.50;99.90;;;;;;4922448;29;20182;-80
2022/08/27 05:26:14;;;;;;;5.25;1.38;;;17.50;99.90;;;;;;4922185;29;20531;-78
2022/08/27 05:28:40;;;;;;;7.40;1.20;;;17.50;99.90;;;;;;4939453;29;20070;-79
2022/08/27 05:31:08;;;;;;;6.78;1.42;;;17.60;99.90;;;;;;4939233;29;20047;-78
2022/08/27 05:33:37;;;;;;;6.78;1.60;;;17.50;99.90;;;;;;4939221;29;20046;-79
2022/08/27 05:36:04;;;;;;;3.95;1.20;;;17.60;99.90;;;;;;4939437;29;20066;-79
2022/08/27 05:38:31;;;;;;;7.88;1.60;;;17.60;99.90;;;;;;4922350;29;20135;-78
2022/08/27 05:41:13;;;;;;;5.72;1.35;;;17.60;99.90;;;;;;4939234;29;20127;-78
2022/08/27 05:43:40;;;;;;;7.30;1.77;;;17.70;99.90;;;;;;4939067;29;20063;-78
2022/08/27 05:46:14;;;;;;;8.23;1.40;;;17.70;99.90;;;;;;4922109;29;20057;-79
2022/08/27 05:48:41;;;;;;;9.50;1.73;;;17.70;99.90;;;;;;4938836;29;20090;-78
2022/08/27 05:51:08;;;;;;;6.32;1.08;;;17.70;99.90;;;;;;4938416;29;20047;-77
2022/08/27 05:53:34;;;;;;;6.93;1.67;;;17.80;99.90;;;;;;4938414;29;20122;-79
2022/08/27 05:56:00;;;;;;;7.57;1.35;;;17.80;99.90;;;;;;4921718;29;20179;-78
2022/08/27 06:01:09;;;;;;;6.45;1.75;;;17.80;99.90;;;;;;4921689;29;20055;-79
2022/08/27 06:03:36;;;;;;;5.10;1.42;;;17.80;99.90;;;;;;4938790;29;20047;-78
2022/08/27 06:06:05;;;;;;;6.43;1.30;;;17.90;99.90;;;;;;4938575;29;20396;-78
2022/08/27 06:08:31;;;;;;;7.40;1.58;;;17.90;99.90;;;;;;4938840;29;20106;-78
2022/08/27 06:11:00;;;;;;;7.47;1.65;;;17.80;99.90;;;;;;4938485;29;20160;-78
2022/08/27 06:13:27;;;;;;;6.38;1.30;;;17.90;99.90;;;;;;4921341;29;20047;-78
2022/08/27 06:16:12;;;;;;;5.15;1.30;;;18.00;99.90;;;;;;4938387;29;20099;-78
2022/08/27 06:18:40;;;;;;;6.05;1.15;;;18.20;99.90;;;;;;4921667;29;20047;-79
2022/08/27 06:21:06;;;;;;;5.85;1.27;;;18.40;99.90;;;;;;4938392;29;20051;-79
2022/08/27 06:23:33;;;;;;;5.40;1.75;;;18.60;99.90;;;;;;4938315;29;20126;-77
2022/08/27 06:25:59;;;;;;;5.68;1.38;;;18.60;99.90;;;;;;4920962;29;20526;-77
2022/08/27 06:28:30;;;;;;;7.05;1.33;;;18.70;99.90;;;;;;4921363;29;20047;-78
2022/08/27 06:31:06;;;;;;;6.47;1.45;;;18.60;99.90;;;;;;4938311;29;20043;-79
2022/08/27 06:33:33;;;;;;;8.25;1.30;;;18.60;99.90;;;;;;4921303;29;20373;-79
2022/08/27 06:36:05;;;;;;;7.13;1.35;;;18.60;99.90;;;;;;4938081;29;20102;-78
2022/08/27 06:38:31;;;;;;;11.53;1.77;;;18.60;99.90;;;;;;4938246;29;20048;-78
2022/08/27 06:40:57;;;;;;;7.05;1.38;;;18.60;99.90;;;;;;4937787;29;20307;-78
2022/08/27 06:43:24;;;;;;;8.05;1.70;;;18.60;99.90;;;;;;4920842;29;20055;-78
2022/08/27 06:45:50;;;;;;;3.70;1.08;;;18.60;99.90;;;;;;4937909;29;20047;-78
2022/08/27 06:48:16;;;;;;;5.88;1.20;;;18.70;99.90;;;;;;4937742;29;20444;-78
2022/08/27 06:50:43;;;;;;;4.82;1.27;;;18.80;99.90;;;;;;4937716;29;20043;-78
2022/08/27 06:53:10;;;;;;;8.13;1.63;;;19.10;99.90;;;;;;4937981;29;20095;-78
2022/08/27 06:55:54;;;;;;;4.90;1.05;;;19.30;99.90;;;;;;4937476;29;20083;-78
2022/08/27 06:58:19;;;;;;;3.72;1.02;;;19.40;99.90;;;;;;4937731;29;20043;-78
2022/08/27 07:00:45;;;;;;;6.45;1.10;;;19.50;99.90;;;;;;4931094;29;20055;-77
2022/08/27 07:03:11;;;;;;;5.90;1.10;;;19.40;99.90;;;;;;4925433;29;20048;-78
2022/08/27 07:05:38;;;;;;;5.25;1.30;;;19.30;99.90;;;;;;4918505;29;20052;-77
2022/08/27 07:08:06;;;;;;;4.00;1.00;;;19.20;99.90;;;;;;4918243;29;20059;-77
2022/08/27 07:10:33;;;;;;;5.50;1.02;;;19.40;99.90;;;;;;4901199;29;20051;-78
2022/08/27 07:12:59;;;;;;;5.20;0.90;;;19.60;99.90;;;;;;4918203;29;20509;-77
2022/08/27 07:15:25;;;;;;;4.35;1.10;;;19.70;99.90;;;;;;4901509;29;20048;-78
2022/08/27 07:17:51;;;;;;;5.18;1.00;;;19.90;99.90;;;;;;4901153;29;20055;-77
2022/08/27 07:20:19;;;;;;;4.28;1.02;;;20.10;99.90;;;;;;4918231;29;20040;-77
2022/08/27 07:22:46;;;;;;;5.43;0.90;;;20.40;99.90;;;;;;4917845;29;20532;-77
2022/08/27 07:25:17;;;;;;;5.57;0.98;;;20.50;99.90;;;;;;4918151;29;20109;-78
2022/08/27 07:27:43;;;;;;;4.00;1.10;;;20.60;99.90;;;;;;4918158;29;20048;-78
2022/08/27 07:30:12;;;;;;;3.70;0.90;;;20.70;99.90;;;;;;4918061;29;20127;-77
2022/08/27 07:32:38;;;;;;;7.70;1.10;;;20.70;99.90;;;;;;4918111;29;20056;-77
2022/08/27 07:35:08;;;;;;;6.82;1.17;;;20.60;99.90;;;;;;4917826;29;20070;-77
2022/08/27 07:37:38;;;;;;;3.92;0.98;;;20.40;99.90;;;;;;4918024;29;20079;-77
2022/08/27 07:40:12;;;;;;;5.07;0.90;;;20.30;99.90;;;;;;4901060;29;20048;-77
2022/08/27 07:45:24;;;;;;;6.95;1.38;;;20.40;99.90;;;;;;4917467;29;20058;-77
2022/08/27 07:47:50;;;;;;;7.22;1.15;;;20.40;99.90;;;;;;4934460;29;20111;-77
2022/08/27 07:50:16;;;;;;;11.68;1.13;;;20.40;99.90;;;;;;4950898;28;20043;-77
2022/08/27 07:52:42;;;;;;;6.72;0.90;;;20.50;99.90;;;;;;4936626;29;20099;-76
2022/08/27 07:55:10;;;;;;;4.30;0.80;;;20.50;99.90;;;;;;4925944;29;20119;-77
2022/08/27 07:57:37;;;;;;;8.40;1.10;;;20.80;99.90;;;;;;4931176;29;20051;-77
2022/08/27 08:00:05;;;;;;;3.60;0.88;;;21.00;99.90;;;;;;4936515;29;20048;-77
2022/08/27 08:02:30;;;;;;;6.35;1.15;;;21.00;99.90;;;;;;4919458;29;20620;-77
2022/08/27 08:04:56;;;;;;;7.22;0.75;;;20.90;99.90;;;;;;4936278;29;20126;-78
2022/08/27 08:07:23;;;;;;;4.72;0.90;;;20.80;99.90;;;;;;4919226;29;20131;-77
2022/08/27 08:09:49;;;;;;;5.22;1.52;;;20.70;99.90;;;;;;4936362;29;20075;-77
2022/08/27 08:12:14;;;;;;;6.55;1.60;;;20.70;99.90;;;;;;4936385;29;20086;-78
2022/08/27 08:14:40;;;;;;;6.22;0.98;;;20.90;99.90;;;;;;4918367;29;20047;-78
2022/08/27 08:17:06;;;;;;;4.63;0.88;;;21.00;99.90;;;;;;4921125;29;20063;-78
2022/08/27 08:19:32;;;;;;;6.63;1.08;;;21.10;99.90;;;;;;4946266;29;20039;-78
2022/08/27 08:21:59;;;;;;;2.80;0.80;;;21.10;99.90;;;;;;4955231;29;20580;-77
2022/08/27 08:24:24;;;;;;;5.55;1.08;;;21.00;99.90;;;;;;4938014;29;20491;-79
2022/08/27 08:26:50;;;;;;;4.95;1.10;;;21.00;99.90;;;;;;4935371;29;20058;-78
2022/08/27 08:29:16;;;;;;;5.80;1.10;;;20.90;99.90;;;;;;4928515;29;20047;-78
2022/08/27 08:31:42;;;;;;;6.80;1.40;;;20.70;99.90;;;;;;4937983;29;20514;-77
2022/08/27 08:34:08;;;;;;;7.70;1.30;;;20.60;99.90;;;;;;4955107;29;20533;-78
2022/08/27 08:36:33;;;;;;;5.38;1.00;;;20.50;99.90;;;;;;4955474;29;20055;-78
2022/08/27 08:38:59;;;;;;;7.68;0.90;;;20.50;99.90;;;;;;4955036;29;20135;-77
2022/08/27 08:42:07;;;;;;;4.82;0.90;;;20.40;99.90;;;;;;4955054;29;20050;-77
2022/08/27 08:44:51;;;;;;;3.08;0.73;;;20.40;99.90;;;;;;4917853;29;20093;-77
2022/08/27 08:47:42;;;;;;;4.75;0.70;;;20.50;99.90;;;;;;4951872;29;20061;-78
2022/08/27 08:50:34;;;;;;;5.97;1.00;;;20.80;99.90;;;;;;4922957;29;20122;-77
2022/08/27 08:53:05;;;;;;;4.53;0.80;;;20.80;99.90;;;;;;4937803;29;20051;-77
2022/08/27 08:55:44;;;;;;;4.33;0.77;;;20.80;99.90;;;;;;4937853;29;20054;-77
2022/08/27 08:58:33;;;;;;;9.07;1.10;;;20.80;99.90;;;;;;4947142;29;20044;-78
2022/08/27 09:01:02;;;;;;;5.95;1.00;;;20.90;99.90;;;;;;4937076;29;20078;-78
2022/08/27 09:03:31;;;;;;;3.95;0.63;;;20.80;99.90;;;;;;4938047;29;20035;-77
2022/08/27 09:06:37;;;;;;;4.90;0.75;;;20.80;99.90;;;;;;4935939;29;20062;-78
2022/08/27 09:09:22;;;;;;;6.82;0.75;;;20.90;99.90;;;;;;4906301;29;20066;-77
2022/08/27 09:11:55;;;;;;;4.80;0.70;;;21.20;99.90;;;;;;4935867;29;20236;-78
2022/08/27 09:14:42;;;;;;;4.32;1.20;;;21.50;99.90;;;;;;4918691;29;20131;-77
2022/08/27 09:17:08;;;;;;;4.78;0.98;;;21.60;99.90;;;;;;4919530;29;20495;-77
2022/08/27 09:19:34;;;;;;;4.43;0.63;;;21.60;99.90;;;;;;4937700;29;20495;-78
2022/08/27 09:22:41;;;;;;;4.32;0.65;;;21.60;99.90;;;;;;4935762;29;20058;-77
2022/08/27 09:25:33;;;;;;;9.80;1.00;;;21.60;99.90;;;;;;4897012;29;20066;-78
2022/08/27 09:28:03;;;;;;;8.25;1.67;;;21.50;99.90;;;;;;4936622;29;20055;-78
2022/08/27 09:30:39;;;;;;;7.32;1.15;;;21.50;99.90;;;;;;4938570;29;20035;-78
2022/08/27 09:33:05;;;;;;;10.30;1.33;;;21.40;99.90;;;;;;4939127;29;20138;-77
2022/08/27 09:35:40;;;;;;;4.18;0.70;;;21.30;99.90;;;;;;4938989;29;20171;-78
2022/08/27 09:38:08;;;;;;;8.05;1.10;;;21.30;99.90;;;;;;4938916;29;20381;-78
2022/08/27 09:40:49;;;;;;;5.43;1.00;;;21.50;99.90;;;;;;4938911;29;20491;-78
2022/08/27 09:43:14;;;;;;;4.55;0.93;;;21.80;99.90;;;;;;4938819;29;20463;-78
2022/08/27 09:45:51;;;;;;;3.50;0.88;;;21.90;99.90;;;;;;4938837;29;20036;-77
2022/08/27 09:48:33;;;;;;;5.40;0.85;;;21.90;99.90;;;;;;4938715;29;20526;-78
2022/08/27 09:51:11;;;;;;;4.50;0.67;;;21.80;99.90;;;;;;4921010;29;20087;-77
2022/08/27 09:53:46;;;;;;;4.68;1.10;;;21.70;99.90;;;;;;4938608;29;20391;-79
2022/08/27 09:56:30;;;;;;;4.35;0.93;;;21.80;99.90;;;;;;4921671;29;20047;-78
2022/08/27 09:59:10;;;;;;;6.28;0.60;;;21.70;99.90;;;;;;4938517;29;20051;-78
2022/08/27 10:02:01;;;;;;;4.45;0.60;;;21.70;99.90;;;;;;4938771;29;20044;-78
2022/08/27 10:04:41;;;;;;;5.45;1.00;;;21.80;99.90;;;;;;4938424;29;20502;-78
2022/08/27 10:07:34;;;;;;;3.40;0.80;;;21.90;99.90;;;;;;4938309;29;20491;-78
2022/08/27 10:10:22;;;;;;;4.50;0.80;;;21.80;99.90;;;;;;4938655;29;20500;-78
2022/08/27 10:13:00;;;;;;;5.93;1.00;;;21.90;99.90;;;;;;4921524;29;20051;-78
2022/08/27 10:15:32;;;;;;;5.55;0.65;;;22.00;99.90;;;;;;4921113;29;20046;-78
2022/08/27 10:18:06;;;;;;;3.20;0.50;;;22.00;99.90;;;;;;4921287;29;20135;-78
2022/08/27 10:21:20;;;;;;;8.02;0.70;;;22.10;99.90;;;;;;4921478;29;20047;-78
2022/08/27 10:23:57;;;;;;;4.07;0.82;;;22.20;99.90;;;;;;4938304;29;20083;-79
2022/08/27 10:26:36;;;;;;;5.75;0.85;;;22.10;99.90;;;;;;4921077;29;20411;-79
2022/08/27 10:29:05;;;;;;;5.68;0.80;;;22.00;99.90;;;;;;4937979;29;20484;-79
2022/08/27 10:31:50;;;;;;;7.43;0.82;;;22.00;99.90;;;;;;4920879;29;20058;-78
2022/08/27 10:34:42;;;;;;;5.53;1.15;;;22.00;99.90;;;;;;4920824;29;20043;-80
2022/08/27 10:37:27;;;;;;;3.85;0.93;;;22.00;99.90;;;;;;4938123;29;20046;-79
2022/08/27 10:40:02;;;;;;;3.67;0.70;;;21.90;99.90;;;;;;4920812;29;20044;-79
2022/08/27 10:42:35;;;;;;;8.35;1.45;;;21.80;99.90;;;;;;4921062;29;20047;-78
2022/08/27 10:45:04;;;;;;;5.50;1.35;;;21.70;99.90;;;;;;4938006;29;20051;-78
2022/08/27 10:47:46;;;;;;;6.88;1.00;;;21.70;99.90;;;;;;4937812;29;20055;-79
2022/08/27 10:50:29;;;;;;;4.72;1.05;;;21.80;99.90;;;;;;4937823;29;20035;-78
2022/08/27 10:52:59;;;;;;;5.68;0.82;;;22.00;99.90;;;;;;4937395;29;20066;-78
2022/08/27 10:55:31;;;;;;;5.55;0.68;;;22.10;99.90;;;;;;4920856;29;20546;-78
2022/08/27 10:58:19;;;;;;;8.10;1.60;;;22.00;99.90;;;;;;4937832;29;20075;-80
2022/08/27 11:01:10;;;;;;;3.65;0.60;;;22.20;99.90;;;;;;4937786;29;20098;-79
2022/08/27 11:03:49;;;;;;;4.57;0.80;;;22.50;99.90;;;;;;4920473;29;20051;-79
2022/08/27 11:06:35;;;;;;;8.70;1.30;;;22.60;99.90;;;;;;4937632;29;20142;-77
2022/08/27 11:09:10;;;;;;;10.38;1.65;;;22.70;99.90;;;;;;4937284;29;20106;-79
2022/08/27 11:11:44;;;;;;;7.03;1.05;;;22.80;99.90;;;;;;4937434;29;20040;-78
2022/08/27 11:14:27;;;;;;;4.63;1.00;;;22.90;99.90;;;;;;4937445;29;20040;-78
2022/08/27 11:17:14;;;;;;;6.20;1.20;;;23.20;99.90;;;;;;4920364;29;20119;-79
2022/08/27 11:19:48;;;;;;;5.30;0.75;;;23.20;99.90;;;;;;4937336;29;20063;-78
2022/08/27 11:22:28;;;;;;;6.68;0.52;;;23.20;99.90;;;;;;4919970;29;20118;-77
2022/08/27 11:25:04;;;;;;;4.57;0.90;;;23.30;99.90;;;;;;4920162;29;20043;-90
2022/08/27 11:27:32;;;;;;;6.35;0.70;;;23.50;99.90;;;;;;4919409;29;20098;-87
2022/08/27 11:30:20;;;;;;;3.35;0.77;;;23.70;99.90;;;;;;4936876;29;20040;-86
2022/08/27 11:33:08;;;;;;;5.70;1.10;;;23.80;99.90;;;;;;4919908;29;20051;-88
2022/08/27 11:36:13;;;;;;;4.07;0.73;;;24.10;99.90;;;;;;4919737;29;20071;-88
2022/08/27 11:39:02;;;;;;;;;;;;;;;;;;;;;
2022/08/27 11:41:43;;;;;;;5.63;1.35;;;24.00;99.90;;;;;;4909775;29;20055;-92
2022/08/27 11:44:09;;;;;;;6.78;1.30;;;23.80;99.90;;;;;;4922768;23;20060;-84
2022/08/27 11:46:49;;;;;;;6.40;0.55;;;23.70;99.90;;;;;;4900926;29;20052;-90
2022/08/27 11:49:34;;;;;;;4.18;0.80;;;23.50;99.90;;;;;;4900923;29;20140;-86
2022/08/27 11:52:08;;;;;;;4.65;0.60;;;23.40;99.90;;;;;;4900846;29;20062;-87
2022/08/27 11:54:50;;;;;;;4.32;0.90;;;23.40;99.90;;;;;;4900728;29;20081;-88
2022/08/27 11:57:30;;;;;;;4.17;0.60;;;23.70;99.90;;;;;;4917899;29;20044;-84
2022/08/27 11:59:56;;;;;;;4.70;0.93;;;23.80;99.90;;;;;;4900770;29;20410;-87
2022/08/27 12:02:28;;;;;;;3.47;0.60;;;23.90;99.90;;;;;;4900675;29;20484;-92
2022/08/27 12:05:07;;;;;;;4.13;0.60;;;24.00;99.90;;;;;;4917688;29;20036;-80
2022/08/27 12:07:36;;;;;;;2.88;0.82;;;24.20;99.90;;;;;;4917616;29;20044;-86
2022/08/27 12:10:01;;;;;;;4.13;0.90;;;24.20;99.90;;;;;;4917288;29;20075;-87
2022/08/27 12:12:55;;;;;;;5.72;1.20;;;24.20;99.90;;;;;;4917261;29;20044;-86
2022/08/27 12:15:43;;;;;;;5.57;1.10;;;24.20;99.90;;;;;;4900587;29;20056;-84
2022/08/27 12:18:45;;;;;;;8.25;1.60;;;24.30;99.90;;;;;;4900533;29;20048;-88
2022/08/27 12:21:29;;;;;;;5.90;1.60;;;24.40;99.90;;;;;;4917273;29;20130;-77
2022/08/27 12:24:09;;;;;;;5.88;1.25;;;24.40;99.90;;;;;;4900806;29;20128;-88
2022/08/27 12:26:38;;;;;;;4.55;0.90;;;24.20;99.90;;;;;;4900589;29;20052;-78
2022/08/27 12:29:28;;;;;;;3.95;1.17;;;24.10;99.90;;;;;;4900377;29;20056;-78
2022/08/27 12:32:03;;;;;;;5.20;1.23;;;24.20;99.90;;;;;;4916907;29;20056;-79
2022/08/27 12:34:30;;;;;;;10.00;1.52;;;24.20;99.90;;;;;;4917409;29;20040;-80
2022/08/27 12:36:55;;;;;;;4.63;0.77;;;24.30;99.90;;;;;;4900397;29;20044;-80
2022/08/27 12:39:28;;;;;;;8.88;1.42;;;24.40;99.90;;;;;;4916852;29;20036;-80
2022/08/27 12:41:54;;;;;;;5.38;1.13;;;24.30;99.90;;;;;;4917285;29;20119;-81
2022/08/27 12:44:25;;;;;;;2.78;1.05;;;24.20;99.90;;;;;;4896707;29;20510;-78
2022/08/27 12:46:57;;;;;;;6.30;1.05;;;24.20;99.90;;;;;;4898442;29;20572;-78
2022/08/27 12:49:27;;;;;;;3.85;0.98;;;24.00;99.90;;;;;;4899886;29;20079;-78
2022/08/27 12:51:56;;;;;;;7.03;1.20;;;24.00;99.90;;;;;;4899880;29;20147;-79
2022/08/27 12:54:52;;;;;;;6.05;1.15;;;24.10;99.90;;;;;;4917257;29;20043;-79
2022/08/27 12:57:35;;;;;;;4.22;1.23;;;23.90;99.90;;;;;;4917262;29;20051;-80
2022/08/27 13:00:19;;;;;;;2.55;0.77;;;23.70;99.90;;;;;;4899905;29;20489;-78
2022/08/27 13:02:48;;;;;;;4.13;0.98;;;23.60;99.90;;;;;;4903319;29;20052;-78
2022/08/27 13:05:20;;;;;;;5.63;1.10;;;23.50;99.90;;;;;;4903929;29;20070;-78
2022/08/27 13:07:47;;;;;;;3.87;1.10;;;23.40;99.90;;;;;;4904080;29;20084;-80
2022/08/27 13:10:25;;;;;;;8.07;1.38;;;23.50;99.90;;;;;;4920662;29;20044;-79
2022/08/27 13:13:07;;;;;;;7.57;0.85;;;23.40;99.90;;;;;;4920774;29;20059;-79
2022/08/27 13:15:33;;;;;;;6.00;1.30;;;23.30;99.90;;;;;;4904108;29;20048;-79